createdAt,value
2023-04-18T00:00:56.527Z,40.53
2023-04-18T00:03:24.253Z,40.80
2023-04-18T00:05:51.926Z,43.58
2023-04-18T00:08:19.260Z,37.45
2023-04-18T00:10:46.641Z,38.67
2023-04-18T00:13:14.213Z,45.88
2023-04-18T00:15:43.839Z,42.95
2023-04-18T00:18:11.290Z,39.80
2023-04-18T00:20:39.343Z,41.05
2023-04-18T00:23:08.372Z,44.20
2023-04-18T00:25:35.681Z,44.00
2023-04-18T00:28:03.053Z,39.60
2023-04-18T00:30:30.383Z,41.95
2023-04-18T00:32:59.456Z,36.67
2023-04-18T00:35:26.831Z,38.50
2023-04-18T00:37:54.152Z,44.80
2023-04-18T00:40:21.457Z,39.13
2023-04-18T00:42:48.783Z,38.92
2023-04-18T00:45:16.197Z,40.78
2023-04-18T00:47:43.526Z,42.22
2023-04-18T00:50:11.846Z,36.35
2023-04-18T00:52:39.359Z,37.95
2023-04-18T00:55:07.999Z,42.30
2023-04-18T00:57:36.163Z,39.50
2023-04-18T01:00:26.705Z,44.28
2023-04-18T01:02:55.865Z,37.78
2023-04-18T01:05:23.698Z,39.00
2023-04-18T01:07:52.172Z,39.88
2023-04-18T01:10:19.615Z,36.75
2023-04-18T01:12:47.009Z,38.42
2023-04-18T01:15:14.347Z,35.00
2023-04-18T01:17:42.442Z,34.72
2023-04-18T01:20:10.486Z,37.88
2023-04-18T01:22:37.801Z,33.58
2023-04-18T01:25:09.554Z,33.00
2023-04-18T01:27:36.869Z,36.17
2023-04-18T01:30:04.561Z,30.83
2023-04-18T01:32:32.799Z,33.60
2023-04-18T01:35:00.178Z,30.35
2023-04-18T01:37:27.684Z,28.73
2023-04-18T01:39:55.014Z,29.30
2023-04-18T01:42:22.416Z,30.75
2023-04-18T01:44:49.722Z,30.27
2023-04-18T01:47:17.081Z,29.73
2023-04-18T01:49:48.164Z,26.95
2023-04-18T01:52:16.190Z,29.08
2023-04-18T01:54:43.825Z,27.65
2023-04-18T01:57:11.177Z,26.20
2023-04-18T01:59:40.872Z,27.13
2023-04-18T02:02:08.420Z,28.10
2023-04-18T02:04:35.913Z,24.20
2023-04-18T02:07:03.299Z,26.20
2023-04-18T02:09:30.948Z,24.30
2023-04-18T02:11:59.619Z,25.67
2023-04-18T02:14:37.305Z,26.23
2023-04-18T02:17:04.638Z,25.02
2023-04-18T02:19:32.041Z,23.45
2023-04-18T02:21:59.399Z,24.13
2023-04-18T02:24:26.723Z,23.35
2023-04-18T02:26:54.007Z,29.15
2023-04-18T02:29:21.359Z,24.80
2023-04-18T02:31:48.663Z,24.85
2023-04-18T02:34:16.348Z,22.67
2023-04-18T02:36:45.038Z,24.90
2023-04-18T02:39:12.528Z,24.40
2023-04-18T02:41:39.832Z,23.88
2023-04-18T02:44:08.341Z,26.73
2023-04-18T02:46:36.215Z,28.38
2023-04-18T02:49:03.596Z,26.10
2023-04-18T02:51:30.971Z,24.70
2023-04-18T02:54:04.042Z,26.25
2023-04-18T02:56:31.422Z,25.67
2023-04-18T02:58:58.778Z,24.05
2023-04-18T03:01:26.101Z,22.45
2023-04-18T03:03:53.728Z,24.00
2023-04-18T03:06:20.982Z,21.75
2023-04-18T03:08:48.308Z,22.52
2023-04-18T03:11:15.838Z,21.45
2023-04-18T03:13:43.273Z,20.42
2023-04-18T03:16:11.537Z,19.75
2023-04-18T03:18:38.935Z,21.92
2023-04-18T03:21:07.263Z,19.83
2023-04-18T03:23:34.584Z,19.08
2023-04-18T03:26:06.103Z,21.60
2023-04-18T03:28:33.551Z,24.15
2023-04-18T03:33:52.641Z,19.25
2023-04-18T03:36:25.407Z,20.15
2023-04-18T03:38:52.779Z,21.27
2023-04-18T03:41:20.120Z,19.58
2023-04-18T03:43:47.608Z,18.67
2023-04-18T03:46:15.370Z,21.00
2023-04-18T03:48:42.817Z,19.83
2023-04-18T03:51:10.264Z,17.42
2023-04-18T03:53:37.804Z,19.33
2023-04-18T03:56:05.595Z,18.58
2023-04-18T03:58:32.962Z,16.48
2023-04-18T04:01:01.215Z,18.67
2023-04-18T04:03:28.857Z,20.25
2023-04-18T04:06:17.777Z,19.67
2023-04-18T04:08:45.229Z,21.23
2023-04-18T04:11:12.666Z,18.98
2023-04-18T04:13:40.060Z,21.35
2023-04-18T04:16:07.987Z,19.10
2023-04-18T04:18:35.474Z,21.25
2023-04-18T04:21:03.872Z,16.65
2023-04-18T04:23:31.305Z,17.45
2023-04-18T04:25:58.918Z,22.85
2023-04-18T04:28:26.371Z,24.00
2023-04-18T04:30:54.106Z,18.92
2023-04-18T04:33:25.121Z,20.35
2023-04-18T04:36:24.127Z,19.38
2023-04-18T04:38:52.356Z,20.20
2023-04-18T04:41:19.661Z,20.45
2023-04-18T04:43:47.774Z,24.60
2023-04-18T04:46:15.549Z,21.70
2023-04-18T04:48:43.324Z,19.27
2023-04-18T04:51:10.588Z,20.38
2023-04-18T04:53:38.186Z,21.60
2023-04-18T04:56:06.083Z,21.15
2023-04-18T04:58:33.466Z,20.25
2023-04-18T05:01:01.076Z,19.38
2023-04-18T05:03:30.221Z,22.27
2023-04-18T05:05:57.635Z,20.48
2023-04-18T05:08:25.015Z,19.42
2023-04-18T05:10:52.357Z,19.63
2023-04-18T05:13:19.706Z,21.60
2023-04-18T05:15:47.048Z,20.63
2023-04-18T05:18:14.527Z,21.63
2023-04-18T05:20:41.928Z,25.17
2023-04-18T05:23:09.228Z,21.25
2023-04-18T05:25:36.752Z,23.75
2023-04-18T05:28:08.507Z,19.50
2023-04-18T05:30:37.484Z,25.15
2023-04-18T05:33:04.954Z,23.75
2023-04-18T05:35:32.599Z,21.98
2023-04-18T05:38:02.532Z,22.42
2023-04-18T05:40:33.063Z,20.95
2023-04-18T05:43:01.152Z,23.60
2023-04-18T05:45:29.593Z,23.27
2023-04-18T05:47:57.297Z,22.52
2023-04-18T05:50:24.784Z,21.90
2023-04-18T05:52:55.129Z,27.00
2023-04-18T05:55:25.804Z,23.30
2023-04-18T05:57:53.525Z,20.98
2023-04-18T06:00:21.126Z,23.42
2023-04-18T06:02:49.973Z,22.65
2023-04-18T06:05:20.464Z,24.73
2023-04-18T06:07:48.789Z,24.38
2023-04-18T06:10:19.129Z,21.20
2023-04-18T06:12:46.479Z,23.83
2023-04-18T06:15:13.896Z,22.45
2023-04-18T06:17:41.297Z,19.45
2023-04-18T06:20:09.321Z,18.98
2023-04-18T06:22:36.781Z,19.85
2023-04-18T06:25:04.248Z,21.75
2023-04-18T06:27:32.140Z,23.83
2023-04-18T06:29:59.875Z,22.70
2023-04-18T06:32:27.331Z,20.58
2023-04-18T06:34:54.688Z,23.20
2023-04-18T06:37:22.037Z,20.52
2023-04-18T06:39:49.318Z,23.17
2023-04-18T06:42:16.592Z,23.02
2023-04-18T06:44:44.041Z,22.20
2023-04-18T06:47:11.770Z,21.05
2023-04-18T06:49:39.081Z,26.15
2023-04-18T06:52:06.512Z,20.63
2023-04-18T06:54:33.903Z,21.60
2023-04-18T06:57:03.559Z,21.10
2023-04-18T06:59:30.908Z,21.30
2023-04-18T07:01:58.153Z,20.65
2023-04-18T07:04:25.915Z,23.10
2023-04-18T07:06:53.353Z,23.17
2023-04-18T07:09:20.844Z,21.50
2023-04-18T07:11:48.114Z,25.05
2023-04-18T07:14:15.624Z,21.08
2023-04-18T07:16:43.328Z,21.15
2023-04-18T07:19:10.638Z,24.92
2023-04-18T07:21:40.501Z,20.67
2023-04-18T07:24:07.882Z,22.58
2023-04-18T07:26:35.578Z,17.33
2023-04-18T07:29:02.940Z,19.88
2023-04-18T07:31:31.407Z,18.10
2023-04-18T07:33:58.968Z,19.13
2023-04-18T07:36:26.502Z,20.75
2023-04-18T07:38:53.747Z,19.27
2023-04-18T07:41:21.138Z,19.02
2023-04-18T07:43:48.442Z,18.63
2023-04-18T07:46:15.797Z,18.15
2023-04-18T07:48:43.294Z,19.15
2023-04-18T07:51:11.241Z,18.35
2023-04-18T07:53:39.614Z,24.27
2023-04-18T07:56:07.056Z,18.80
2023-04-18T07:58:37.484Z,17.13
2023-04-18T08:01:06.091Z,20.10
2023-04-18T08:03:35.042Z,19.08
2023-04-18T08:06:03.267Z,16.15
2023-04-18T08:08:30.688Z,13.73
2023-04-18T08:10:58.008Z,19.60
2023-04-18T08:13:25.358Z,16.20
2023-04-18T08:15:52.814Z,16.45
2023-04-18T08:18:20.173Z,15.93
2023-04-18T08:20:47.643Z,15.82
2023-04-18T08:23:15.040Z,19.60
2023-04-18T08:25:42.398Z,17.15
2023-04-18T08:28:09.807Z,16.75
2023-04-18T08:30:39.746Z,16.58
2023-04-18T08:33:07.263Z,16.40
2023-04-18T08:35:35.345Z,16.70
2023-04-18T08:38:03.049Z,17.95
2023-04-18T08:40:30.605Z,15.57
2023-04-18T08:42:58.941Z,19.38
2023-04-18T08:45:26.505Z,14.75
2023-04-18T08:47:53.952Z,16.08
2023-04-18T08:50:21.686Z,13.05
2023-04-18T08:52:50.906Z,13.63
2023-04-18T08:55:19.056Z,13.98
2023-04-18T08:57:47.624Z,13.40
2023-04-18T09:00:17.028Z,15.00
2023-04-18T09:02:45.017Z,16.65
2023-04-18T09:05:19.531Z,13.10
2023-04-18T09:07:48.210Z,13.90
2023-04-18T09:10:29.043Z,17.13
2023-04-18T09:15:27.284Z,17.15
2023-04-18T09:17:56.458Z,13.43
2023-04-18T09:20:30.816Z,13.60
2023-04-18T09:23:00.664Z,17.90
2023-04-18T09:25:43.287Z,17.10
2023-04-18T09:28:28.472Z,17.45
2023-04-18T09:30:57.749Z,15.23
2023-04-18T09:33:39.363Z,14.85
2023-04-18T09:36:24.358Z,18.05
2023-04-18T09:38:55.943Z,13.82
2023-04-18T09:41:24.370Z,13.20
2023-04-18T09:44:13.245Z,13.63
2023-04-18T09:46:44.482Z,15.43
2023-04-18T09:49:13.804Z,14.05
2023-04-18T09:51:43.059Z,14.02
2023-04-18T09:54:14.330Z,13.13
2023-04-18T09:56:44.280Z,12.65
2023-04-18T09:59:12.787Z,12.55
2023-04-18T10:01:41.237Z,11.93
2023-04-18T10:04:08.799Z,12.82
2023-04-18T10:06:39.742Z,12.60
2023-04-18T10:09:09.487Z,11.93
2023-04-18T10:11:37.189Z,14.18
2023-04-18T10:14:10.263Z,13.05
2023-04-18T10:16:38.678Z,12.85
2023-04-18T10:19:27.336Z,12.90
2023-04-18T10:21:59.424Z,11.70
2023-04-18T10:24:47.616Z,11.87
2023-04-18T10:27:18.169Z,13.70
2023-04-18T10:29:49.979Z,8.98
2023-04-18T10:32:18.782Z,13.07
2023-04-18T10:34:47.978Z,11.25
2023-04-18T10:37:15.613Z,10.93
2023-04-18T10:40:02.781Z,12.30
2023-04-18T10:43:02.840Z,12.32
2023-04-18T10:45:36.278Z,11.15
2023-04-18T10:48:24.575Z,12.10
2023-04-18T10:51:14.627Z,10.85
2023-04-18T10:53:54.358Z,13.55
2023-04-18T10:56:22.001Z,10.45
2023-04-18T10:58:53.533Z,12.65
2023-04-18T11:01:31.656Z,10.90
2023-04-18T11:04:00.995Z,8.80
2023-04-18T11:06:29.056Z,7.63
2023-04-18T11:09:13.495Z,9.73
2023-04-18T11:11:41.921Z,9.85
2023-04-18T11:14:09.406Z,5.53
2023-04-18T11:16:36.843Z,7.15
2023-04-18T11:19:21.494Z,4.90
2023-04-18T11:21:49.177Z,7.45
2023-04-18T11:24:28.089Z,6.32
2023-04-18T11:26:56.079Z,5.28
2023-04-18T11:29:23.806Z,4.65
2023-04-18T11:31:55.215Z,3.80
2023-04-18T11:34:32.547Z,5.18
2023-04-18T11:37:00.530Z,3.00
2023-04-18T11:39:27.951Z,4.57
2023-04-18T11:41:57.162Z,2.83
2023-04-18T11:44:25.868Z,3.60
2023-04-18T11:46:53.917Z,2.85
2023-04-18T11:49:30.477Z,2.42
2023-04-18T11:51:58.343Z,7.43
2023-04-18T11:54:43.216Z,3.75
2023-04-18T11:57:32.008Z,4.60
2023-04-18T12:00:00.959Z,6.13
2023-04-18T12:02:46.101Z,6.30
2023-04-18T12:05:24.485Z,5.28
2023-04-18T12:07:52.033Z,4.95
2023-04-18T12:10:49.072Z,8.48
2023-04-18T12:13:16.769Z,8.63
2023-04-18T12:15:45.678Z,6.57
2023-04-18T12:18:15.409Z,8.15
2023-04-18T12:20:50.589Z,6.88
2023-04-18T12:23:35.862Z,5.88
2023-04-18T12:26:14.272Z,8.38
2023-04-18T12:28:45.839Z,10.65
2023-04-18T12:31:13.228Z,7.30
2023-04-18T12:33:40.643Z,7.75
2023-04-18T12:36:09.057Z,9.55
2023-04-18T12:38:36.531Z,10.45
2023-04-18T12:41:06.841Z,8.98
2023-04-18T12:43:34.330Z,9.57
2023-04-18T12:46:01.746Z,13.88
2023-04-18T12:48:29.053Z,10.82
2023-04-18T12:50:56.325Z,10.50
2023-04-18T12:53:23.625Z,12.63
2023-04-18T12:55:51.007Z,12.20
2023-04-18T12:58:20.641Z,11.93
2023-04-18T13:00:48.030Z,11.10
2023-04-18T13:03:15.639Z,13.00
2023-04-18T13:05:43.165Z,12.23
2023-04-18T13:08:17.000Z,11.70
2023-04-18T13:10:46.146Z,12.43
2023-04-18T13:13:13.569Z,12.38
2023-04-18T13:15:41.347Z,12.05
2023-04-18T13:18:08.787Z,12.45
2023-04-18T13:20:36.663Z,13.38
2023-04-18T13:23:04.126Z,15.10
2023-04-18T13:25:31.552Z,12.18
2023-04-18T13:28:00.878Z,13.40
2023-04-18T13:30:28.549Z,14.25
2023-04-18T13:32:56.787Z,12.75
2023-04-18T13:35:24.365Z,11.98
2023-04-18T13:37:51.725Z,14.65
2023-04-18T13:40:19.138Z,12.68
2023-04-18T13:42:46.455Z,12.80
2023-04-18T13:45:13.729Z,12.98
2023-04-18T13:47:41.100Z,14.18
2023-04-18T13:50:09.041Z,12.73
2023-04-18T13:52:36.450Z,12.30
2023-04-18T13:55:04.029Z,12.05
2023-04-18T13:57:32.390Z,13.40
2023-04-18T13:59:59.906Z,14.27
2023-04-18T14:02:27.711Z,13.70
2023-04-18T14:04:55.538Z,12.90
2023-04-18T14:07:23.087Z,15.40
2023-04-18T14:09:52.058Z,16.45
2023-04-18T14:12:21.058Z,14.65
2023-04-18T14:14:48.350Z,15.23
2023-04-18T14:17:15.920Z,14.90
2023-04-18T14:19:43.455Z,16.85
2023-04-18T14:22:11.075Z,15.07
2023-04-18T14:24:38.538Z,16.73
2023-04-18T14:27:06.248Z,16.50
2023-04-18T14:29:33.632Z,16.65
2023-04-18T14:32:00.955Z,15.95
2023-04-18T14:34:28.327Z,19.33
2023-04-18T14:36:58.776Z,19.38
2023-04-18T14:39:31.522Z,15.43
2023-04-18T14:41:59.304Z,15.70
2023-04-18T14:44:26.867Z,16.42
2023-04-18T14:46:54.391Z,16.10
2023-04-18T14:49:23.675Z,17.55
2023-04-18T14:51:54.299Z,16.92
2023-04-18T14:54:21.900Z,17.13
2023-04-18T14:56:49.408Z,16.55
2023-04-18T14:59:19.629Z,21.90
2023-04-18T15:01:47.496Z,17.80
2023-04-18T15:04:15.492Z,18.42
2023-04-18T15:06:43.191Z,18.67
2023-04-18T15:09:11.193Z,18.10
2023-04-18T15:11:38.757Z,18.20
2023-04-18T15:14:06.717Z,19.92
2023-04-18T15:16:35.314Z,19.17
2023-04-18T15:19:02.968Z,16.58
2023-04-18T15:21:30.518Z,20.65
2023-04-18T15:23:59.435Z,21.45
2023-04-18T15:26:27.597Z,21.58
2023-04-18T15:28:55.102Z,18.35
2023-04-18T15:31:26.212Z,19.85
2023-04-18T15:33:56.352Z,20.67
2023-04-18T15:36:30.494Z,20.17
2023-04-18T15:38:57.964Z,19.73
2023-04-18T15:41:25.948Z,20.05
2023-04-18T15:43:54.004Z,19.35
2023-04-18T15:46:24.711Z,18.30
2023-04-18T15:48:58.308Z,19.25
2023-04-18T15:51:30.636Z,22.08
2023-04-18T15:53:58.143Z,21.20
2023-04-18T15:56:36.826Z,18.58
2023-04-18T15:59:07.277Z,18.88
2023-04-18T16:01:37.055Z,19.60
2023-04-18T16:04:13.973Z,19.98
2023-04-18T16:06:44.471Z,20.38
2023-04-18T16:09:12.191Z,20.70
2023-04-18T16:11:49.289Z,21.35
2023-04-18T16:14:26.520Z,20.80
2023-04-18T16:16:55.051Z,20.67
2023-04-18T16:19:26.204Z,19.17
2023-04-18T16:21:58.706Z,21.63
2023-04-18T16:24:30.303Z,22.73
2023-04-18T16:27:09.965Z,21.45
2023-04-18T16:29:40.223Z,20.75
2023-04-18T16:32:10.434Z,21.63
2023-04-18T16:34:40.615Z,19.45
2023-04-18T16:37:23.852Z,20.10
2023-04-18T16:42:35.752Z,20.90
2023-04-18T16:47:47.321Z,17.70
2023-04-18T16:50:15.895Z,19.65
2023-04-18T16:52:43.294Z,21.77
2023-04-18T16:55:13.933Z,21.83
2023-04-18T16:57:43.479Z,20.17
2023-04-18T17:00:14.304Z,19.30
2023-04-18T17:02:53.698Z,20.98
2023-04-18T17:05:23.275Z,21.85
2023-04-18T17:07:52.124Z,19.23
2023-04-18T17:10:20.401Z,18.52
2023-04-18T17:12:52.772Z,19.60
2023-04-18T17:15:21.390Z,20.10
2023-04-18T17:17:48.958Z,16.30
2023-04-18T17:20:18.056Z,19.48
2023-04-18T17:22:46.674Z,21.10
2023-04-18T17:25:21.836Z,20.20
2023-04-18T17:28:04.663Z,18.75
2023-04-18T17:30:38.585Z,19.73
2023-04-18T17:38:44.978Z,22.85
2023-04-18T17:41:16.219Z,20.23
2023-04-18T17:44:03.270Z,17.58
2023-04-18T17:46:33.175Z,18.70
2023-04-18T17:49:04.768Z,19.75
2023-04-18T17:51:34.002Z,19.63
2023-04-18T17:54:02.055Z,17.25
2023-04-18T17:56:35.746Z,20.25
2023-04-18T17:59:05.900Z,19.48
2023-04-18T18:01:35.299Z,18.63
2023-04-18T18:04:03.868Z,19.92
2023-04-18T18:06:34.343Z,19.67
2023-04-18T18:09:02.547Z,20.42
2023-04-18T18:11:33.579Z,23.48
2023-04-18T18:14:14.561Z,20.83
2023-04-18T18:16:42.337Z,21.77
2023-04-18T18:19:12.197Z,20.90
2023-04-18T18:21:45.400Z,20.58
2023-04-18T18:24:16.139Z,19.92
2023-04-18T18:26:58.197Z,20.27
2023-04-18T18:29:25.747Z,21.38
2023-04-18T18:31:53.269Z,19.80
2023-04-18T18:34:21.644Z,21.80
2023-04-18T18:36:50.846Z,22.00
2023-04-18T18:39:18.440Z,19.98
2023-04-18T18:41:46.253Z,22.80
2023-04-18T18:44:14.253Z,18.90
2023-04-18T18:46:43.372Z,22.15
2023-04-18T18:49:11.331Z,20.42
2023-04-18T18:51:39.056Z,21.90
2023-04-18T18:54:06.510Z,26.45
2023-04-18T18:56:34.628Z,27.95
2023-04-18T18:59:02.607Z,24.05
2023-04-18T19:01:30.413Z,22.88
2023-04-18T19:03:58.200Z,25.95
2023-04-18T19:06:26.649Z,21.48
2023-04-18T19:08:54.146Z,23.00
2023-04-18T19:11:23.927Z,21.58
2023-04-18T19:13:56.162Z,20.67
2023-04-18T19:16:25.652Z,22.88
2023-04-18T19:18:54.054Z,24.75
2023-04-18T19:21:21.690Z,24.05
2023-04-18T19:23:49.697Z,21.42
2023-04-18T19:26:17.332Z,25.85
2023-04-18T19:28:45.089Z,22.50
2023-04-18T19:31:12.791Z,23.08
2023-04-18T19:33:43.462Z,23.23
2023-04-18T19:36:16.456Z,23.15
2023-04-18T19:38:46.752Z,24.92
2023-04-18T19:41:14.218Z,26.55
2023-04-18T19:43:42.997Z,26.15
2023-04-18T19:46:13.523Z,24.70
2023-04-18T19:48:41.629Z,23.98
2023-04-18T19:51:09.312Z,24.70
2023-04-18T19:53:36.872Z,26.33
2023-04-18T19:56:04.930Z,25.27
2023-04-18T19:58:47.542Z,24.30
2023-04-18T20:01:19.364Z,27.88
2023-04-18T20:03:48.289Z,25.80
2023-04-18T20:06:17.736Z,26.90
2023-04-18T20:08:54.155Z,27.70
2023-04-18T20:11:27.952Z,25.10
2023-04-18T20:13:56.755Z,29.17
2023-04-18T20:16:26.141Z,24.80
2023-04-18T20:18:57.118Z,25.48
2023-04-18T20:21:28.548Z,27.52
2023-04-18T20:23:59.373Z,26.95
2023-04-18T20:26:30.058Z,22.40
2023-04-18T20:29:06.698Z,24.70
2023-04-18T20:31:35.359Z,27.33
2023-04-18T20:34:03.015Z,28.23
2023-04-18T20:36:30.793Z,23.95
2023-04-18T20:38:58.192Z,21.27
2023-04-18T20:41:27.119Z,23.50
2023-04-18T20:43:54.756Z,26.08
2023-04-18T20:46:22.363Z,23.23
2023-04-18T20:48:49.786Z,25.02
2023-04-18T20:51:17.366Z,22.60
2023-04-18T20:53:44.731Z,24.63
2023-04-18T20:56:12.373Z,22.95
2023-04-18T20:58:40.592Z,25.55
2023-04-18T21:01:07.961Z,26.92
2023-04-18T21:03:35.659Z,23.80
2023-04-18T21:06:03.153Z,24.95
2023-04-18T21:08:31.732Z,24.70
2023-04-18T21:10:59.066Z,23.77
2023-04-18T21:13:26.417Z,24.80
2023-04-18T21:15:54.020Z,25.27
2023-04-18T21:18:21.436Z,23.05
2023-04-18T21:20:49.079Z,22.48
2023-04-18T21:23:16.527Z,22.67
2023-04-18T21:25:43.889Z,24.23
2023-04-18T21:28:14.626Z,24.83
2023-04-18T21:30:42.088Z,20.92
2023-04-18T21:33:09.637Z,19.73
2023-04-18T21:35:36.987Z,17.77
2023-04-18T21:38:04.405Z,18.30
2023-04-18T21:40:33.367Z,18.35
2023-04-18T21:43:00.750Z,18.50
2023-04-18T21:45:35.843Z,17.85
2023-04-18T21:48:03.469Z,17.20
2023-04-18T21:50:31.017Z,16.45
2023-04-18T21:52:58.332Z,18.92
2023-04-18T21:55:25.749Z,15.75
2023-04-18T21:57:54.331Z,16.05
2023-04-18T22:00:21.825Z,18.70
2023-04-18T22:02:49.367Z,15.60
2023-04-18T22:05:17.110Z,17.30
2023-04-18T22:07:56.796Z,15.57
2023-04-18T22:10:25.366Z,15.77
2023-04-18T22:12:54.135Z,17.42
2023-04-18T22:15:21.818Z,16.17
2023-04-18T22:17:50.409Z,15.60
2023-04-18T22:20:17.966Z,14.88
2023-04-18T22:22:45.474Z,19.25
2023-04-18T22:25:12.848Z,19.90
2023-04-18T22:27:40.488Z,17.20
2023-04-18T22:30:08.550Z,15.77
2023-04-18T22:32:36.231Z,15.65
2023-04-18T22:35:04.096Z,17.17
2023-04-18T22:37:31.505Z,17.15
2023-04-18T22:39:58.947Z,18.98
2023-04-18T22:42:26.304Z,19.55
2023-04-18T22:44:53.676Z,19.65
2023-04-18T22:47:21.376Z,18.88
2023-04-18T22:49:49.253Z,18.67
2023-04-18T22:52:17.094Z,18.80
2023-04-18T22:54:44.570Z,16.58
2023-04-18T22:57:13.330Z,16.13
2023-04-18T22:59:40.784Z,16.42
2023-04-18T23:02:08.332Z,16.33
2023-04-18T23:04:36.162Z,16.15
2023-04-18T23:07:03.735Z,17.48
2023-04-18T23:09:31.603Z,17.25
2023-04-18T23:11:58.953Z,16.77
2023-04-18T23:14:26.616Z,15.52
2023-04-18T23:16:53.985Z,18.70
2023-04-18T23:19:21.597Z,17.00
2023-04-18T23:21:49.680Z,15.70
2023-04-18T23:24:17.360Z,17.77
2023-04-18T23:26:44.925Z,17.60
2023-04-18T23:29:12.527Z,17.55
2023-04-18T23:31:40.014Z,16.67
2023-04-18T23:34:07.448Z,17.42
2023-04-18T23:36:34.940Z,17.30
2023-04-18T23:39:02.417Z,19.42
2023-04-18T23:41:29.994Z,17.75
2023-04-18T23:43:57.343Z,17.83
2023-04-18T23:46:24.812Z,17.08
2023-04-18T23:48:52.422Z,19.80
2023-04-18T23:51:20.015Z,20.65
2023-04-18T23:53:47.520Z,20.63
2023-04-18T23:56:15.046Z,20.40
2023-04-18T23:58:42.528Z,18.70
